sensor_id;sensor_type;location;lat;lon;timestamp;P1;durP1;ratioP1;P2;durP2;ratioP2
55706;SDS011;41608;45.384;20.394;2022-12-29T00:00:05;26.65;;;17.52;;
55706;SDS011;41608;45.384;20.394;2022-12-29T00:02:31;34.88;;;16.20;;
55706;SDS011;41608;45.384;20.394;2022-12-29T00:04:58;33.53;;;18.45;;
55706;SDS011;41608;45.384;20.394;2022-12-29T00:07:24;27.20;;;16.33;;
55706;SDS011;41608;45.384;20.394;2022-12-29T00:09:50;28.92;;;15.32;;
55706;SDS011;41608;45.384;20.394;2022-12-29T00:12:16;25.60;;;14.60;;
55706;SDS011;41608;45.384;20.394;2022-12-29T00:14:42;30.40;;;16.67;;
55706;SDS011;41608;45.384;20.394;2022-12-29T00:17:26;32.15;;;17.60;;
55706;SDS011;41608;45.384;20.394;2022-12-29T00:19:53;29.08;;;16.30;;
55706;SDS011;41608;45.384;20.394;2022-12-29T00:22:37;35.40;;;23.25;;
55706;SDS011;41608;45.384;20.394;2022-12-29T00:25:22;35.47;;;21.20;;
55706;SDS011;41608;45.384;20.394;2022-12-29T00:28:10;28.63;;;17.38;;
55706;SDS011;41608;45.384;20.394;2022-12-29T00:30:58;22.70;;;13.73;;
55706;SDS011;41608;45.384;20.394;2022-12-29T00:33:43;25.88;;;15.10;;
55706;SDS011;41608;45.384;20.394;2022-12-29T00:36:31;26.52;;;17.02;;
55706;SDS011;41608;45.384;20.394;2022-12-29T00:39:08;37.08;;;18.38;;
55706;SDS011;41608;45.384;20.394;2022-12-29T00:41:54;33.63;;;20.15;;
55706;SDS011;41608;45.384;20.394;2022-12-29T00:44:38;30.27;;;20.90;;
55706;SDS011;41608;45.384;20.394;2022-12-29T00:47:04;34.58;;;19.35;;
55706;SDS011;41608;45.384;20.394;2022-12-29T00:49:31;30.13;;;17.08;;
55706;SDS011;41608;45.384;20.394;2022-12-29T00:52:05;26.13;;;17.42;;
55706;SDS011;41608;45.384;20.394;2022-12-29T00:54:32;32.28;;;19.15;;
55706;SDS011;41608;45.384;20.394;2022-12-29T00:56:58;32.35;;;18.10;;
55706;SDS011;41608;45.384;20.394;2022-12-29T00:59:25;35.67;;;20.67;;
55706;SDS011;41608;45.384;20.394;2022-12-29T01:01:51;30.95;;;21.35;;
55706;SDS011;41608;45.384;20.394;2022-12-29T01:04:18;29.60;;;18.90;;
55706;SDS011;41608;45.384;20.394;2022-12-29T01:06:44;33.42;;;20.25;;
55706;SDS011;41608;45.384;20.394;2022-12-29T01:09:10;30.60;;;19.38;;
55706;SDS011;41608;45.384;20.394;2022-12-29T01:11:55;34.63;;;17.65;;
55706;SDS011;41608;45.384;20.394;2022-12-29T01:14:21;28.05;;;17.88;;
55706;SDS011;41608;45.384;20.394;2022-12-29T01:16:48;23.67;;;15.15;;
55706;SDS011;41608;45.384;20.394;2022-12-29T01:19:14;28.05;;;16.48;;
55706;SDS011;41608;45.384;20.394;2022-12-29T01:21:40;27.48;;;17.23;;
55706;SDS011;41608;45.384;20.394;2022-12-29T01:24:07;29.90;;;19.27;;
55706;SDS011;41608;45.384;20.394;2022-12-29T01:26:33;30.60;;;19.52;;
55706;SDS011;41608;45.384;20.394;2022-12-29T01:28:59;36.22;;;20.85;;
55706;SDS011;41608;45.384;20.394;2022-12-29T01:31:25;34.97;;;19.63;;
55706;SDS011;41608;45.384;20.394;2022-12-29T01:33:51;27.52;;;17.38;;
55706;SDS011;41608;45.384;20.394;2022-12-29T01:36:17;26.50;;;16.88;;
55706;SDS011;41608;45.384;20.394;2022-12-29T01:38:44;25.77;;;17.40;;
55706;SDS011;41608;45.384;20.394;2022-12-29T01:41:10;26.67;;;16.95;;
55706;SDS011;41608;45.384;20.394;2022-12-29T01:46:08;26.98;;;17.48;;
55706;SDS011;41608;45.384;20.394;2022-12-29T01:48:39;25.58;;;17.02;;
55706;SDS011;41608;45.384;20.394;2022-12-29T01:51:06;25.33;;;15.27;;
55706;SDS011;41608;45.384;20.394;2022-12-29T01:53:32;19.13;;;13.25;;
55706;SDS011;41608;45.384;20.394;2022-12-29T01:55:59;23.23;;;13.82;;
55706;SDS011;41608;45.384;20.394;2022-12-29T01:58:29;18.65;;;13.05;;
55706;SDS011;41608;45.384;20.394;2022-12-29T02:00:56;21.85;;;12.13;;
55706;SDS011;41608;45.384;20.394;2022-12-29T02:03:22;21.20;;;13.25;;
55706;SDS011;41608;45.384;20.394;2022-12-29T02:05:56;22.15;;;12.43;;
55706;SDS011;41608;45.384;20.394;2022-12-29T02:08:24;19.50;;;12.18;;
55706;SDS011;41608;45.384;20.394;2022-12-29T02:10:51;18.02;;;12.60;;
55706;SDS011;41608;45.384;20.394;2022-12-29T02:13:18;22.30;;;14.85;;
55706;SDS011;41608;45.384;20.394;2022-12-29T02:33:40;26.40;;;16.30;;
55706;SDS011;41608;45.384;20.394;2022-12-29T02:48:32;37.47;;;22.85;;
55706;SDS011;41608;45.384;20.394;2022-12-29T02:51:04;33.50;;;19.02;;
55706;SDS011;41608;45.384;20.394;2022-12-29T02:53:33;25.48;;;17.25;;
55706;SDS011;41608;45.384;20.394;2022-12-29T02:56:18;26.90;;;17.65;;
55706;SDS011;41608;45.384;20.394;2022-12-29T02:58:45;26.45;;;17.35;;
55706;SDS011;41608;45.384;20.394;2022-12-29T03:03:57;25.38;;;16.73;;
55706;SDS011;41608;45.384;20.394;2022-12-29T03:06:40;28.10;;;17.33;;
55706;SDS011;41608;45.384;20.394;2022-12-29T03:11:48;37.97;;;27.20;;
55706;SDS011;41608;45.384;20.394;2022-12-29T03:14:39;46.72;;;28.25;;
55706;SDS011;41608;45.384;20.394;2022-12-29T03:20:03;44.80;;;30.20;;
55706;SDS011;41608;45.384;20.394;2022-12-29T03:22:30;47.95;;;30.42;;
55706;SDS011;41608;45.384;20.394;2022-12-29T03:28:04;76.88;;;33.13;;
55706;SDS011;41608;45.384;20.394;2022-12-29T03:30:23;48.83;;;31.70;;
55706;SDS011;41608;45.384;20.394;2022-12-29T03:32:53;46.90;;;32.90;;
55706;SDS011;41608;45.384;20.394;2022-12-29T03:35:21;54.42;;;32.30;;
55706;SDS011;41608;45.384;20.394;2022-12-29T03:40:32;46.38;;;29.05;;
55706;SDS011;41608;45.384;20.394;2022-12-29T03:42:59;45.67;;;31.20;;
55706;SDS011;41608;45.384;20.394;2022-12-29T03:45:25;43.05;;;27.25;;
55706;SDS011;41608;45.384;20.394;2022-12-29T03:47:52;42.53;;;27.92;;
55706;SDS011;41608;45.384;20.394;2022-12-29T03:50:19;43.75;;;27.23;;
55706;SDS011;41608;45.384;20.394;2022-12-29T03:52:45;43.15;;;26.63;;
55706;SDS011;41608;45.384;20.394;2022-12-29T03:55:11;42.75;;;27.25;;
55706;SDS011;41608;45.384;20.394;2022-12-29T03:57:37;52.63;;;29.08;;
55706;SDS011;41608;45.384;20.394;2022-12-29T04:00:04;44.42;;;27.52;;
55706;SDS011;41608;45.384;20.394;2022-12-29T04:02:30;50.58;;;29.80;;
55706;SDS011;41608;45.384;20.394;2022-12-29T04:04:56;58.65;;;33.13;;
55706;SDS011;41608;45.384;20.394;2022-12-29T04:07:22;61.95;;;36.22;;
55706;SDS011;41608;45.384;20.394;2022-12-29T04:09:48;60.05;;;34.85;;
55706;SDS011;41608;45.384;20.394;2022-12-29T04:12:14;54.92;;;35.22;;
55706;SDS011;41608;45.384;20.394;2022-12-29T04:14:40;61.03;;;36.05;;
55706;SDS011;41608;45.384;20.394;2022-12-29T04:17:06;48.63;;;29.63;;
55706;SDS011;41608;45.384;20.394;2022-12-29T04:19:32;46.45;;;28.15;;
55706;SDS011;41608;45.384;20.394;2022-12-29T04:21:58;41.17;;;26.65;;
55706;SDS011;41608;45.384;20.394;2022-12-29T04:24:24;33.42;;;21.92;;
55706;SDS011;41608;45.384;20.394;2022-12-29T04:26:50;35.47;;;21.83;;
55706;SDS011;41608;45.384;20.394;2022-12-29T04:29:16;27.92;;;20.30;;
55706;SDS011;41608;45.384;20.394;2022-12-29T04:31:43;31.92;;;20.25;;
55706;SDS011;41608;45.384;20.394;2022-12-29T04:34:09;34.20;;;23.20;;
55706;SDS011;41608;45.384;20.394;2022-12-29T04:36:35;45.78;;;21.45;;
55706;SDS011;41608;45.384;20.394;2022-12-29T04:39:01;32.58;;;23.55;;
55706;SDS011;41608;45.384;20.394;2022-12-29T04:41:27;38.03;;;24.08;;
55706;SDS011;41608;45.384;20.394;2022-12-29T04:43:53;42.78;;;23.85;;
55706;SDS011;41608;45.384;20.394;2022-12-29T04:46:19;37.38;;;25.10;;
55706;SDS011;41608;45.384;20.394;2022-12-29T04:48:45;34.03;;;22.73;;
55706;SDS011;41608;45.384;20.394;2022-12-29T04:51:11;33.45;;;23.17;;
55706;SDS011;41608;45.384;20.394;2022-12-29T04:53:37;30.52;;;19.20;;
55706;SDS011;41608;45.384;20.394;2022-12-29T04:56:04;29.35;;;21.08;;
55706;SDS011;41608;45.384;20.394;2022-12-29T04:58:30;32.05;;;21.08;;
55706;SDS011;41608;45.384;20.394;2022-12-29T05:00:56;36.38;;;22.95;;
55706;SDS011;41608;45.384;20.394;2022-12-29T05:03:22;29.35;;;20.30;;
55706;SDS011;41608;45.384;20.394;2022-12-29T05:05:48;35.67;;;22.58;;
55706;SDS011;41608;45.384;20.394;2022-12-29T05:08:14;32.50;;;22.63;;
55706;SDS011;41608;45.384;20.394;2022-12-29T05:10:43;41.10;;;26.48;;
55706;SDS011;41608;45.384;20.394;2022-12-29T05:13:09;46.72;;;28.95;;
55706;SDS011;41608;45.384;20.394;2022-12-29T05:15:38;49.45;;;29.95;;
55706;SDS011;41608;45.384;20.394;2022-12-29T05:18:04;55.17;;;34.67;;
55706;SDS011;41608;45.384;20.394;2022-12-29T05:20:30;55.22;;;33.38;;
55706;SDS011;41608;45.384;20.394;2022-12-29T05:22:56;42.80;;;29.10;;
55706;SDS011;41608;45.384;20.394;2022-12-29T05:25:23;39.78;;;27.65;;
55706;SDS011;41608;45.384;20.394;2022-12-29T05:27:49;35.65;;;24.25;;
55706;SDS011;41608;45.384;20.394;2022-12-29T05:30:15;38.50;;;21.83;;
55706;SDS011;41608;45.384;20.394;2022-12-29T05:32:41;29.55;;;21.20;;
55706;SDS011;41608;45.384;20.394;2022-12-29T05:35:07;33.00;;;21.10;;
55706;SDS011;41608;45.384;20.394;2022-12-29T05:37:33;31.13;;;19.50;;
55706;SDS011;41608;45.384;20.394;2022-12-29T05:39:59;27.73;;;19.40;;
55706;SDS011;41608;45.384;20.394;2022-12-29T05:42:25;34.85;;;21.90;;
55706;SDS011;41608;45.384;20.394;2022-12-29T05:44:51;33.03;;;21.20;;
55706;SDS011;41608;45.384;20.394;2022-12-29T05:47:18;34.05;;;19.77;;
55706;SDS011;41608;45.384;20.394;2022-12-29T05:49:45;33.42;;;21.02;;
55706;SDS011;41608;45.384;20.394;2022-12-29T05:52:11;27.05;;;19.88;;
55706;SDS011;41608;45.384;20.394;2022-12-29T05:54:37;37.95;;;21.77;;
55706;SDS011;41608;45.384;20.394;2022-12-29T05:57:03;32.13;;;21.67;;
55706;SDS011;41608;45.384;20.394;2022-12-29T05:59:29;36.47;;;20.60;;
55706;SDS011;41608;45.384;20.394;2022-12-29T06:01:55;36.33;;;20.13;;
55706;SDS011;41608;45.384;20.394;2022-12-29T06:04:21;31.65;;;19.13;;
55706;SDS011;41608;45.384;20.394;2022-12-29T06:06:47;35.63;;;21.10;;
55706;SDS011;41608;45.384;20.394;2022-12-29T06:09:13;37.10;;;22.73;;
55706;SDS011;41608;45.384;20.394;2022-12-29T06:11:39;44.97;;;22.13;;
55706;SDS011;41608;45.384;20.394;2022-12-29T06:14:05;31.55;;;21.20;;
55706;SDS011;41608;45.384;20.394;2022-12-29T06:16:31;28.00;;;20.08;;
55706;SDS011;41608;45.384;20.394;2022-12-29T06:18:57;31.27;;;21.15;;
55706;SDS011;41608;45.384;20.394;2022-12-29T06:21:23;37.72;;;20.33;;
55706;SDS011;41608;45.384;20.394;2022-12-29T06:23:49;32.00;;;20.30;;
55706;SDS011;41608;45.384;20.394;2022-12-29T06:26:15;34.03;;;22.48;;
55706;SDS011;41608;45.384;20.394;2022-12-29T06:28:41;37.17;;;20.65;;
55706;SDS011;41608;45.384;20.394;2022-12-29T06:31:10;29.92;;;20.70;;
55706;SDS011;41608;45.384;20.394;2022-12-29T06:33:37;37.95;;;22.42;;
55706;SDS011;41608;45.384;20.394;2022-12-29T06:36:03;41.13;;;25.15;;
55706;SDS011;41608;45.384;20.394;2022-12-29T06:38:29;34.63;;;23.73;;
55706;SDS011;41608;45.384;20.394;2022-12-29T06:40:55;36.83;;;22.90;;
55706;SDS011;41608;45.384;20.394;2022-12-29T06:43:21;33.88;;;23.75;;
55706;SDS011;41608;45.384;20.394;2022-12-29T06:45:47;41.28;;;24.73;;
55706;SDS011;41608;45.384;20.394;2022-12-29T06:48:13;44.10;;;26.73;;
55706;SDS011;41608;45.384;20.394;2022-12-29T06:50:40;48.25;;;29.42;;
55706;SDS011;41608;45.384;20.394;2022-12-29T06:53:06;44.25;;;28.48;;
55706;SDS011;41608;45.384;20.394;2022-12-29T06:55:32;39.88;;;24.83;;
55706;SDS011;41608;45.384;20.394;2022-12-29T06:57:58;34.50;;;22.27;;
55706;SDS011;41608;45.384;20.394;2022-12-29T07:00:24;35.60;;;23.58;;
55706;SDS011;41608;45.384;20.394;2022-12-29T07:02:50;32.30;;;21.88;;
55706;SDS011;41608;45.384;20.394;2022-12-29T07:05:17;38.60;;;22.08;;
55706;SDS011;41608;45.384;20.394;2022-12-29T07:07:43;38.72;;;23.02;;
55706;SDS011;41608;45.384;20.394;2022-12-29T07:10:09;41.60;;;21.92;;
55706;SDS011;41608;45.384;20.394;2022-12-29T07:12:35;34.95;;;24.02;;
55706;SDS011;41608;45.384;20.394;2022-12-29T07:15:01;41.20;;;23.98;;
55706;SDS011;41608;45.384;20.394;2022-12-29T07:17:27;35.67;;;23.15;;
55706;SDS011;41608;45.384;20.394;2022-12-29T07:19:53;31.60;;;21.85;;
55706;SDS011;41608;45.384;20.394;2022-12-29T07:22:19;31.08;;;20.55;;
55706;SDS011;41608;45.384;20.394;2022-12-29T07:24:45;31.55;;;20.92;;
55706;SDS011;41608;45.384;20.394;2022-12-29T07:27:11;31.67;;;20.15;;
55706;SDS011;41608;45.384;20.394;2022-12-29T07:29:37;29.48;;;21.35;;
55706;SDS011;41608;45.384;20.394;2022-12-29T07:32:04;34.25;;;21.70;;
55706;SDS011;41608;45.384;20.394;2022-12-29T07:34:30;35.70;;;23.27;;
55706;SDS011;41608;45.384;20.394;2022-12-29T07:36:56;40.97;;;22.75;;
55706;SDS011;41608;45.384;20.394;2022-12-29T07:39:22;30.63;;;19.27;;
55706;SDS011;41608;45.384;20.394;2022-12-29T07:41:48;32.88;;;21.40;;
55706;SDS011;41608;45.384;20.394;2022-12-29T07:44:14;34.80;;;22.35;;
55706;SDS011;41608;45.384;20.394;2022-12-29T07:46:40;32.28;;;21.42;;
55706;SDS011;41608;45.384;20.394;2022-12-29T07:49:06;35.97;;;22.98;;
55706;SDS011;41608;45.384;20.394;2022-12-29T07:51:32;32.38;;;22.55;;
55706;SDS011;41608;45.384;20.394;2022-12-29T07:53:58;36.13;;;20.40;;
55706;SDS011;41608;45.384;20.394;2022-12-29T07:56:26;37.88;;;22.60;;
55706;SDS011;41608;45.384;20.394;2022-12-29T07:58:52;38.38;;;24.92;;
55706;SDS011;41608;45.384;20.394;2022-12-29T08:01:18;30.90;;;23.25;;
55706;SDS011;41608;45.384;20.394;2022-12-29T08:03:45;32.85;;;21.00;;
55706;SDS011;41608;45.384;20.394;2022-12-29T08:06:11;30.73;;;20.38;;
55706;SDS011;41608;45.384;20.394;2022-12-29T08:08:37;38.17;;;21.55;;
55706;SDS011;41608;45.384;20.394;2022-12-29T08:11:04;38.55;;;22.25;;
55706;SDS011;41608;45.384;20.394;2022-12-29T08:13:30;33.67;;;23.35;;
55706;SDS011;41608;45.384;20.394;2022-12-29T08:15:57;39.35;;;25.08;;
55706;SDS011;41608;45.384;20.394;2022-12-29T08:18:23;37.13;;;26.88;;
55706;SDS011;41608;45.384;20.394;2022-12-29T08:20:50;35.17;;;25.60;;
55706;SDS011;41608;45.384;20.394;2022-12-29T08:23:16;42.38;;;26.02;;
55706;SDS011;41608;45.384;20.394;2022-12-29T08:25:42;40.92;;;24.30;;
55706;SDS011;41608;45.384;20.394;2022-12-29T08:28:08;33.97;;;23.83;;
55706;SDS011;41608;45.384;20.394;2022-12-29T08:30:35;48.17;;;25.38;;
55706;SDS011;41608;45.384;20.394;2022-12-29T08:33:01;37.08;;;27.10;;
55706;SDS011;41608;45.384;20.394;2022-12-29T08:35:27;33.17;;;21.38;;
55706;SDS011;41608;45.384;20.394;2022-12-29T08:37:53;36.17;;;24.50;;
55706;SDS011;41608;45.384;20.394;2022-12-29T08:40:19;29.85;;;20.25;;
55706;SDS011;41608;45.384;20.394;2022-12-29T08:42:45;35.05;;;22.95;;
55706;SDS011;41608;45.384;20.394;2022-12-29T08:45:12;30.65;;;21.75;;
55706;SDS011;41608;45.384;20.394;2022-12-29T08:47:38;34.35;;;22.42;;
55706;SDS011;41608;45.384;20.394;2022-12-29T08:50:04;34.22;;;21.25;;
55706;SDS011;41608;45.384;20.394;2022-12-29T08:52:30;35.47;;;22.95;;
55706;SDS011;41608;45.384;20.394;2022-12-29T08:54:56;33.35;;;22.27;;
55706;SDS011;41608;45.384;20.394;2022-12-29T08:57:23;34.22;;;20.35;;
55706;SDS011;41608;45.384;20.394;2022-12-29T08:59:49;31.25;;;20.63;;
55706;SDS011;41608;45.384;20.394;2022-12-29T09:02:16;28.83;;;19.40;;
55706;SDS011;41608;45.384;20.394;2022-12-29T09:04:42;30.30;;;18.63;;
55706;SDS011;41608;45.384;20.394;2022-12-29T09:07:08;26.85;;;19.88;;
55706;SDS011;41608;45.384;20.394;2022-12-29T09:09:34;30.27;;;18.65;;
55706;SDS011;41608;45.384;20.394;2022-12-29T09:12:00;28.00;;;16.58;;
55706;SDS011;41608;45.384;20.394;2022-12-29T09:14:26;25.83;;;17.52;;
55706;SDS011;41608;45.384;20.394;2022-12-29T09:16:52;34.95;;;21.27;;
55706;SDS011;41608;45.384;20.394;2022-12-29T09:19:37;26.02;;;16.58;;
55706;SDS011;41608;45.384;20.394;2022-12-29T09:22:03;25.67;;;18.98;;
55706;SDS011;41608;45.384;20.394;2022-12-29T09:24:29;27.17;;;18.23;;
55706;SDS011;41608;45.384;20.394;2022-12-29T09:26:55;29.48;;;17.75;;
55706;SDS011;41608;45.384;20.394;2022-12-29T09:29:22;22.92;;;17.67;;
55706;SDS011;41608;45.384;20.394;2022-12-29T09:31:48;29.92;;;20.80;;
55706;SDS011;41608;45.384;20.394;2022-12-29T09:34:14;33.70;;;19.23;;
55706;SDS011;41608;45.384;20.394;2022-12-29T09:36:40;32.67;;;21.08;;
55706;SDS011;41608;45.384;20.394;2022-12-29T09:39:07;35.55;;;20.25;;
55706;SDS011;41608;45.384;20.394;2022-12-29T09:41:38;33.33;;;19.80;;
55706;SDS011;41608;45.384;20.394;2022-12-29T09:46:51;32.83;;;21.92;;
55706;SDS011;41608;45.384;20.394;2022-12-29T09:49:22;29.67;;;19.85;;
55706;SDS011;41608;45.384;20.394;2022-12-29T09:51:53;27.85;;;19.50;;
55706;SDS011;41608;45.384;20.394;2022-12-29T10:00:06;33.05;;;19.48;;
55706;SDS011;41608;45.384;20.394;2022-12-29T10:02:43;38.58;;;21.23;;
55706;SDS011;41608;45.384;20.394;2022-12-29T10:05:13;29.08;;;19.17;;
55706;SDS011;41608;45.384;20.394;2022-12-29T10:07:48;29.20;;;19.83;;
55706;SDS011;41608;45.384;20.394;2022-12-29T10:23:40;25.65;;;17.38;;
55706;SDS011;41608;45.384;20.394;2022-12-29T10:26:15;28.65;;;17.15;;
55706;SDS011;41608;45.384;20.394;2022-12-29T10:28:44;23.33;;;16.15;;
55706;SDS011;41608;45.384;20.394;2022-12-29T10:34:07;27.55;;;16.42;;
55706;SDS011;41608;45.384;20.394;2022-12-29T10:36:41;25.02;;;16.48;;
55706;SDS011;41608;45.384;20.394;2022-12-29T10:39:22;22.75;;;14.95;;
55706;SDS011;41608;45.384;20.394;2022-12-29T10:41:57;26.30;;;15.25;;
55706;SDS011;41608;45.384;20.394;2022-12-29T10:44:29;23.48;;;16.23;;
55706;SDS011;41608;45.384;20.394;2022-12-29T10:47:00;20.10;;;14.57;;
55706;SDS011;41608;45.384;20.394;2022-12-29T10:49:29;22.70;;;15.20;;
55706;SDS011;41608;45.384;20.394;2022-12-29T10:51:57;22.90;;;16.05;;
55706;SDS011;41608;45.384;20.394;2022-12-29T10:57:01;26.15;;;15.18;;
55706;SDS011;41608;45.384;20.394;2022-12-29T10:59:29;21.80;;;15.27;;
55706;SDS011;41608;45.384;20.394;2022-12-29T11:01:58;23.13;;;16.25;;
55706;SDS011;41608;45.384;20.394;2022-12-29T11:07:10;21.23;;;15.30;;
55706;SDS011;41608;45.384;20.394;2022-12-29T11:09:37;27.30;;;17.25;;
55706;SDS011;41608;45.384;20.394;2022-12-29T11:12:24;25.30;;;17.75;;
55706;SDS011;41608;45.384;20.394;2022-12-29T11:17:28;29.23;;;20.40;;
55706;SDS011;41608;45.384;20.394;2022-12-29T11:19:54;29.90;;;20.00;;
55706;SDS011;41608;45.384;20.394;2022-12-29T11:22:21;31.25;;;20.08;;
55706;SDS011;41608;45.384;20.394;2022-12-29T11:24:48;40.92;;;19.65;;
55706;SDS011;41608;45.384;20.394;2022-12-29T11:27:16;28.30;;;19.58;;
55706;SDS011;41608;45.384;20.394;2022-12-29T11:29:43;79.57;;;25.60;;
55706;SDS011;41608;45.384;20.394;2022-12-29T11:32:19;33.22;;;20.60;;
55706;SDS011;41608;45.384;20.394;2022-12-29T11:34:46;28.23;;;18.33;;
55706;SDS011;41608;45.384;20.394;2022-12-29T11:37:29;31.35;;;19.25;;
55706;SDS011;41608;45.384;20.394;2022-12-29T11:40:02;36.10;;;20.23;;
55706;SDS011;41608;45.384;20.394;2022-12-29T11:42:46;25.48;;;17.98;;
55706;SDS011;41608;45.384;20.394;2022-12-29T11:45:15;28.10;;;18.17;;
55706;SDS011;41608;45.384;20.394;2022-12-29T11:47:42;29.55;;;18.65;;
55706;SDS011;41608;45.384;20.394;2022-12-29T11:50:15;35.60;;;20.83;;
55706;SDS011;41608;45.384;20.394;2022-12-29T11:52:42;27.15;;;19.08;;
55706;SDS011;41608;45.384;20.394;2022-12-29T11:55:16;29.40;;;20.85;;
55706;SDS011;41608;45.384;20.394;2022-12-29T11:57:43;30.58;;;20.35;;
55706;SDS011;41608;45.384;20.394;2022-12-29T12:00:20;36.40;;;21.60;;
55706;SDS011;41608;45.384;20.394;2022-12-29T12:02:58;39.45;;;22.08;;
55706;SDS011;41608;45.384;20.394;2022-12-29T12:08:03;28.33;;;20.02;;
55706;SDS011;41608;45.384;20.394;2022-12-29T12:10:32;31.45;;;21.35;;
55706;SDS011;41608;45.384;20.394;2022-12-29T12:16:06;39.15;;;21.95;;
55706;SDS011;41608;45.384;20.394;2022-12-29T12:18:38;31.45;;;20.25;;
55706;SDS011;41608;45.384;20.394;2022-12-29T12:26:37;27.17;;;20.85;;
55706;SDS011;41608;45.384;20.394;2022-12-29T12:34:04;38.40;;;24.60;;
55706;SDS011;41608;45.384;20.394;2022-12-29T12:39:12;38.83;;;25.35;;
55706;SDS011;41608;45.384;20.394;2022-12-29T12:47:21;53.15;;;29.60;;
55706;SDS011;41608;45.384;20.394;2022-12-29T13:10:12;42.33;;;30.52;;
55706;SDS011;41608;45.384;20.394;2022-12-29T13:18:27;45.13;;;30.27;;
55706;SDS011;41608;45.384;20.394;2022-12-29T13:21:00;44.00;;;29.87;;
55706;SDS011;41608;45.384;20.394;2022-12-29T13:23:37;47.97;;;29.38;;
55706;SDS011;41608;45.384;20.394;2022-12-29T13:29:12;46.15;;;29.73;;
55706;SDS011;41608;45.384;20.394;2022-12-29T13:36:43;45.47;;;31.17;;
55706;SDS011;41608;45.384;20.394;2022-12-29T13:41:39;50.45;;;35.03;;
55706;SDS011;41608;45.384;20.394;2022-12-29T13:44:06;54.08;;;34.50;;
55706;SDS011;41608;45.384;20.394;2022-12-29T13:46:34;59.53;;;35.72;;
55706;SDS011;41608;45.384;20.394;2022-12-29T13:51:38;46.40;;;34.13;;
55706;SDS011;41608;45.384;20.394;2022-12-29T13:54:17;54.47;;;35.50;;
55706;SDS011;41608;45.384;20.394;2022-12-29T14:02:21;55.33;;;35.60;;
55706;SDS011;41608;45.384;20.394;2022-12-29T14:04:57;56.58;;;36.10;;
55706;SDS011;41608;45.384;20.394;2022-12-29T14:07:23;60.58;;;38.55;;
55706;SDS011;41608;45.384;20.394;2022-12-29T14:09:50;65.20;;;39.78;;
55706;SDS011;41608;45.384;20.394;2022-12-29T14:12:21;58.17;;;40.78;;
55706;SDS011;41608;45.384;20.394;2022-12-29T14:14:50;56.30;;;40.35;;
55706;SDS011;41608;45.384;20.394;2022-12-29T14:17:18;54.17;;;37.70;;
55706;SDS011;41608;45.384;20.394;2022-12-29T14:19:45;56.30;;;37.70;;
55706;SDS011;41608;45.384;20.394;2022-12-29T14:22:11;59.28;;;39.95;;
55706;SDS011;41608;45.384;20.394;2022-12-29T14:24:39;61.83;;;39.72;;
55706;SDS011;41608;45.384;20.394;2022-12-29T14:31:57;69.50;;;46.08;;
55706;SDS011;41608;45.384;20.394;2022-12-29T14:34:27;64.80;;;39.63;;
55706;SDS011;41608;45.384;20.394;2022-12-29T14:37:01;70.72;;;40.95;;
55706;SDS011;41608;45.384;20.394;2022-12-29T14:39:37;79.93;;;43.97;;
55706;SDS011;41608;45.384;20.394;2022-12-29T14:44:49;64.93;;;44.40;;
55706;SDS011;41608;45.384;20.394;2022-12-29T14:47:25;68.35;;;44.50;;
55706;SDS011;41608;45.384;20.394;2022-12-29T14:49:52;69.32;;;47.10;;
55706;SDS011;41608;45.384;20.394;2022-12-29T14:52:25;66.13;;;47.15;;
55706;SDS011;41608;45.384;20.394;2022-12-29T14:57:31;78.75;;;47.78;;
55706;SDS011;41608;45.384;20.394;2022-12-29T15:00:06;77.55;;;48.20;;
55706;SDS011;41608;45.384;20.394;2022-12-29T15:02:34;60.63;;;41.47;;
55706;SDS011;41608;45.384;20.394;2022-12-29T15:05:03;68.15;;;43.53;;
55706;SDS011;41608;45.384;20.394;2022-12-29T15:07:30;69.80;;;42.72;;
55706;SDS011;41608;45.384;20.394;2022-12-29T15:10:05;69.25;;;41.30;;
55706;SDS011;41608;45.384;20.394;2022-12-29T15:14:58;65.70;;;44.42;;
55706;SDS011;41608;45.384;20.394;2022-12-29T15:17:32;66.95;;;42.15;;
55706;SDS011;41608;45.384;20.394;2022-12-29T15:22:46;67.45;;;44.40;;
55706;SDS011;41608;45.384;20.394;2022-12-29T15:25:17;70.13;;;43.15;;
55706;SDS011;41608;45.384;20.394;2022-12-29T15:27:48;61.53;;;39.92;;
55706;SDS011;41608;45.384;20.394;2022-12-29T15:30:14;57.42;;;38.83;;
55706;SDS011;41608;45.384;20.394;2022-12-29T15:32:42;60.63;;;39.55;;
55706;SDS011;41608;45.384;20.394;2022-12-29T15:35:22;74.50;;;49.20;;
55706;SDS011;41608;45.384;20.394;2022-12-29T15:37:49;69.25;;;42.78;;
55706;SDS011;41608;45.384;20.394;2022-12-29T15:40:22;65.90;;;43.55;;
55706;SDS011;41608;45.384;20.394;2022-12-29T15:45:26;90.97;;;62.53;;
55706;SDS011;41608;45.384;20.394;2022-12-29T15:47:56;88.63;;;63.50;;
55706;SDS011;41608;45.384;20.394;2022-12-29T15:50:29;85.50;;;58.67;;
55706;SDS011;41608;45.384;20.394;2022-12-29T15:52:56;71.75;;;52.05;;
55706;SDS011;41608;45.384;20.394;2022-12-29T15:57:51;78.10;;;48.25;;
55706;SDS011;41608;45.384;20.394;2022-12-29T16:00:22;78.93;;;46.33;;
55706;SDS011;41608;45.384;20.394;2022-12-29T16:02:48;64.05;;;44.65;;
55706;SDS011;41608;45.384;20.394;2022-12-29T16:05:15;54.63;;;38.72;;
55706;SDS011;41608;45.384;20.394;2022-12-29T16:07:51;58.72;;;38.80;;
55706;SDS011;41608;45.384;20.394;2022-12-29T16:10:35;67.55;;;41.72;;
55706;SDS011;41608;45.384;20.394;2022-12-29T16:15:48;52.15;;;35.38;;
55706;SDS011;41608;45.384;20.394;2022-12-29T16:18:25;52.92;;;36.97;;
55706;SDS011;41608;45.384;20.394;2022-12-29T16:20:52;57.00;;;37.15;;
55706;SDS011;41608;45.384;20.394;2022-12-29T16:23:20;56.75;;;39.08;;
55706;SDS011;41608;45.384;20.394;2022-12-29T16:25:47;60.72;;;37.22;;
55706;SDS011;41608;45.384;20.394;2022-12-29T16:28:17;57.03;;;36.28;;
55706;SDS011;41608;45.384;20.394;2022-12-29T16:30:44;62.85;;;39.85;;
55706;SDS011;41608;45.384;20.394;2022-12-29T16:33:29;61.47;;;39.15;;
55706;SDS011;41608;45.384;20.394;2022-12-29T16:35:56;54.63;;;35.75;;
55706;SDS011;41608;45.384;20.394;2022-12-29T16:38:22;51.88;;;35.72;;
55706;SDS011;41608;45.384;20.394;2022-12-29T16:43:22;56.28;;;37.38;;
55706;SDS011;41608;45.384;20.394;2022-12-29T16:48:19;50.70;;;36.15;;
55706;SDS011;41608;45.384;20.394;2022-12-29T16:50:45;67.22;;;38.78;;
55706;SDS011;41608;45.384;20.394;2022-12-29T16:53:23;59.60;;;36.67;;
55706;SDS011;41608;45.384;20.394;2022-12-29T16:55:51;51.40;;;35.35;;
55706;SDS011;41608;45.384;20.394;2022-12-29T16:58:27;51.50;;;35.08;;
55706;SDS011;41608;45.384;20.394;2022-12-29T17:00:56;54.22;;;34.42;;
55706;SDS011;41608;45.384;20.394;2022-12-29T17:03:24;55.33;;;35.92;;
55706;SDS011;41608;45.384;20.394;2022-12-29T17:05:53;54.35;;;33.97;;
55706;SDS011;41608;45.384;20.394;2022-12-29T17:08:20;60.80;;;36.60;;
55706;SDS011;41608;45.384;20.394;2022-12-29T17:10:51;55.25;;;33.17;;
55706;SDS011;41608;45.384;20.394;2022-12-29T17:13:36;51.90;;;34.40;;